sensor_id;sensor_type;location;lat;lon;timestamp;P1;durP1;ratioP1;P2;durP2;ratioP2
12725;SDS011;6427;49.754;6.106;2023-07-16T00:02:05;4.57;;;1.70;;
12725;SDS011;6427;49.754;6.106;2023-07-16T00:04:33;7.30;;;1.70;;
12725;SDS011;6427;49.754;6.106;2023-07-16T00:07:01;3.73;;;1.50;;
12725;SDS011;6427;49.754;6.106;2023-07-16T00:09:28;4.57;;;1.67;;
12725;SDS011;6427;49.754;6.106;2023-07-16T00:11:57;6.37;;;1.50;;
12725;SDS011;6427;49.754;6.106;2023-07-16T00:14:25;4.10;;;1.43;;
12725;SDS011;6427;49.754;6.106;2023-07-16T00:16:53;2.43;;;1.50;;
12725;SDS011;6427;49.754;6.106;2023-07-16T00:19:21;4.12;;;1.87;;
12725;SDS011;6427;49.754;6.106;2023-07-16T00:21:49;3.17;;;1.53;;
12725;SDS011;6427;49.754;6.106;2023-07-16T00:24:17;4.60;;;1.80;;
12725;SDS011;6427;49.754;6.106;2023-07-16T00:26:45;6.75;;;1.90;;
12725;SDS011;6427;49.754;6.106;2023-07-16T00:29:13;4.83;;;1.60;;
12725;SDS011;6427;49.754;6.106;2023-07-16T00:31:41;6.27;;;1.70;;
12725;SDS011;6427;49.754;6.106;2023-07-16T00:34:08;3.30;;;1.50;;
12725;SDS011;6427;49.754;6.106;2023-07-16T00:36:36;5.23;;;1.93;;
12725;SDS011;6427;49.754;6.106;2023-07-16T00:39:03;2.27;;;1.50;;
12725;SDS011;6427;49.754;6.106;2023-07-16T00:41:31;4.20;;;1.77;;
12725;SDS011;6427;49.754;6.106;2023-07-16T00:43:59;6.33;;;2.00;;
12725;SDS011;6427;49.754;6.106;2023-07-16T00:46:26;5.03;;;2.23;;
12725;SDS011;6427;49.754;6.106;2023-07-16T00:48:54;4.53;;;1.90;;
12725;SDS011;6427;49.754;6.106;2023-07-16T00:51:22;3.63;;;1.60;;
12725;SDS011;6427;49.754;6.106;2023-07-16T00:53:49;4.97;;;1.50;;
12725;SDS011;6427;49.754;6.106;2023-07-16T00:56:17;7.13;;;1.73;;
12725;SDS011;6427;49.754;6.106;2023-07-16T00:58:45;8.83;;;2.17;;
12725;SDS011;6427;49.754;6.106;2023-07-16T01:01:13;5.63;;;1.80;;
12725;SDS011;6427;49.754;6.106;2023-07-16T01:03:40;6.33;;;2.30;;
12725;SDS011;6427;49.754;6.106;2023-07-16T01:06:15;6.93;;;2.17;;
12725;SDS011;6427;49.754;6.106;2023-07-16T01:08:45;5.00;;;2.20;;
12725;SDS011;6427;49.754;6.106;2023-07-16T01:11:12;5.47;;;2.22;;
12725;SDS011;6427;49.754;6.106;2023-07-16T01:13:40;5.63;;;1.80;;
12725;SDS011;6427;49.754;6.106;2023-07-16T01:16:17;5.77;;;1.57;;
12725;SDS011;6427;49.754;6.106;2023-07-16T01:18:35;5.03;;;2.10;;
12725;SDS011;6427;49.754;6.106;2023-07-16T01:21:03;4.33;;;1.90;;
12725;SDS011;6427;49.754;6.106;2023-07-16T01:23:44;9.60;;;1.80;;
12725;SDS011;6427;49.754;6.106;2023-07-16T01:26:08;5.27;;;1.60;;
12725;SDS011;6427;49.754;6.106;2023-07-16T01:31:42;3.57;;;1.40;;
12725;SDS011;6427;49.754;6.106;2023-07-16T01:34:10;3.83;;;1.93;;
12725;SDS011;6427;49.754;6.106;2023-07-16T01:36:38;7.00;;;1.73;;
12725;SDS011;6427;49.754;6.106;2023-07-16T01:39:07;5.10;;;1.77;;
12725;SDS011;6427;49.754;6.106;2023-07-16T01:41:34;5.23;;;1.50;;
12725;SDS011;6427;49.754;6.106;2023-07-16T01:44:02;6.53;;;1.90;;
12725;SDS011;6427;49.754;6.106;2023-07-16T01:46:29;4.32;;;1.75;;
12725;SDS011;6427;49.754;6.106;2023-07-16T01:48:57;8.50;;;1.93;;
12725;SDS011;6427;49.754;6.106;2023-07-16T01:51:24;4.30;;;1.77;;
12725;SDS011;6427;49.754;6.106;2023-07-16T01:53:52;5.50;;;1.90;;
12725;SDS011;6427;49.754;6.106;2023-07-16T01:56:20;3.33;;;1.80;;
12725;SDS011;6427;49.754;6.106;2023-07-16T01:58:47;8.90;;;2.03;;
12725;SDS011;6427;49.754;6.106;2023-07-16T02:01:15;3.00;;;1.70;;
12725;SDS011;6427;49.754;6.106;2023-07-16T02:03:42;3.37;;;1.50;;
12725;SDS011;6427;49.754;6.106;2023-07-16T02:06:11;6.37;;;1.80;;
12725;SDS011;6427;49.754;6.106;2023-07-16T02:08:38;5.13;;;1.63;;
12725;SDS011;6427;49.754;6.106;2023-07-16T02:11:07;6.83;;;1.57;;
12725;SDS011;6427;49.754;6.106;2023-07-16T02:13:34;3.20;;;1.47;;
12725;SDS011;6427;49.754;6.106;2023-07-16T02:16:02;7.18;;;2.15;;
12725;SDS011;6427;49.754;6.106;2023-07-16T02:18:30;7.60;;;1.97;;
12725;SDS011;6427;49.754;6.106;2023-07-16T02:20:57;7.43;;;1.83;;
12725;SDS011;6427;49.754;6.106;2023-07-16T02:23:25;7.40;;;2.13;;
12725;SDS011;6427;49.754;6.106;2023-07-16T02:25:52;5.63;;;1.60;;
12725;SDS011;6427;49.754;6.106;2023-07-16T02:28:21;6.00;;;1.60;;
12725;SDS011;6427;49.754;6.106;2023-07-16T02:30:49;5.93;;;1.77;;
12725;SDS011;6427;49.754;6.106;2023-07-16T02:33:16;6.10;;;1.93;;
12725;SDS011;6427;49.754;6.106;2023-07-16T02:35:48;9.17;;;2.20;;
12725;SDS011;6427;49.754;6.106;2023-07-16T02:38:21;5.93;;;1.77;;
12725;SDS011;6427;49.754;6.106;2023-07-16T02:40:49;9.93;;;2.20;;
12725;SDS011;6427;49.754;6.106;2023-07-16T02:43:17;4.27;;;1.83;;
12725;SDS011;6427;49.754;6.106;2023-07-16T02:45:44;5.43;;;2.00;;
12725;SDS011;6427;49.754;6.106;2023-07-16T02:48:12;7.37;;;1.60;;
12725;SDS011;6427;49.754;6.106;2023-07-16T02:50:40;9.87;;;2.27;;
12725;SDS011;6427;49.754;6.106;2023-07-16T02:53:07;8.30;;;2.12;;
12725;SDS011;6427;49.754;6.106;2023-07-16T02:55:35;8.63;;;1.97;;
12725;SDS011;6427;49.754;6.106;2023-07-16T02:58:02;8.77;;;2.10;;
12725;SDS011;6427;49.754;6.106;2023-07-16T03:00:30;6.63;;;1.90;;
12725;SDS011;6427;49.754;6.106;2023-07-16T03:02:58;3.00;;;1.60;;
12725;SDS011;6427;49.754;6.106;2023-07-16T03:05:26;7.07;;;2.03;;
12725;SDS011;6427;49.754;6.106;2023-07-16T03:07:54;4.83;;;2.07;;
12725;SDS011;6427;49.754;6.106;2023-07-16T03:10:21;8.23;;;2.10;;
12725;SDS011;6427;49.754;6.106;2023-07-16T03:12:49;7.07;;;1.90;;
12725;SDS011;6427;49.754;6.106;2023-07-16T03:15:16;7.00;;;1.90;;
12725;SDS011;6427;49.754;6.106;2023-07-16T03:17:44;5.50;;;1.77;;
12725;SDS011;6427;49.754;6.106;2023-07-16T03:20:11;7.47;;;2.13;;
12725;SDS011;6427;49.754;6.106;2023-07-16T03:22:40;8.77;;;2.10;;
12725;SDS011;6427;49.754;6.106;2023-07-16T03:25:07;8.00;;;2.20;;
12725;SDS011;6427;49.754;6.106;2023-07-16T03:27:35;4.17;;;2.17;;
12725;SDS011;6427;49.754;6.106;2023-07-16T03:30:03;7.40;;;1.93;;
12725;SDS011;6427;49.754;6.106;2023-07-16T03:32:31;6.50;;;1.90;;
12725;SDS011;6427;49.754;6.106;2023-07-16T03:34:59;7.20;;;1.80;;
12725;SDS011;6427;49.754;6.106;2023-07-16T03:37:26;6.45;;;2.45;;
12725;SDS011;6427;49.754;6.106;2023-07-16T03:39:54;6.03;;;2.43;;
12725;SDS011;6427;49.754;6.106;2023-07-16T03:42:21;7.30;;;2.17;;
12725;SDS011;6427;49.754;6.106;2023-07-16T03:44:50;10.67;;;2.30;;
12725;SDS011;6427;49.754;6.106;2023-07-16T03:47:17;8.25;;;2.97;;
12725;SDS011;6427;49.754;6.106;2023-07-16T03:49:46;14.77;;;2.10;;
12725;SDS011;6427;49.754;6.106;2023-07-16T03:52:14;5.03;;;2.20;;
12725;SDS011;6427;49.754;6.106;2023-07-16T03:54:41;7.50;;;2.70;;
12725;SDS011;6427;49.754;6.106;2023-07-16T03:57:10;6.10;;;2.30;;
12725;SDS011;6427;49.754;6.106;2023-07-16T03:59:37;9.00;;;2.23;;
12725;SDS011;6427;49.754;6.106;2023-07-16T04:02:06;5.53;;;2.13;;
12725;SDS011;6427;49.754;6.106;2023-07-16T04:04:33;5.63;;;2.50;;
12725;SDS011;6427;49.754;6.106;2023-07-16T04:07:02;9.05;;;2.58;;
12725;SDS011;6427;49.754;6.106;2023-07-16T04:09:29;7.63;;;2.47;;
12725;SDS011;6427;49.754;6.106;2023-07-16T04:11:58;8.48;;;2.80;;
12725;SDS011;6427;49.754;6.106;2023-07-16T04:14:25;8.17;;;2.50;;
12725;SDS011;6427;49.754;6.106;2023-07-16T04:16:53;6.23;;;2.50;;
12725;SDS011;6427;49.754;6.106;2023-07-16T04:19:20;6.23;;;2.40;;
12725;SDS011;6427;49.754;6.106;2023-07-16T04:21:48;7.00;;;2.60;;
12725;SDS011;6427;49.754;6.106;2023-07-16T04:24:16;8.70;;;2.87;;
12725;SDS011;6427;49.754;6.106;2023-07-16T04:26:43;7.20;;;2.50;;
12725;SDS011;6427;49.754;6.106;2023-07-16T04:29:11;7.77;;;2.47;;
12725;SDS011;6427;49.754;6.106;2023-07-16T04:31:38;6.73;;;2.80;;
12725;SDS011;6427;49.754;6.106;2023-07-16T04:34:06;7.57;;;2.50;;
12725;SDS011;6427;49.754;6.106;2023-07-16T04:36:34;7.20;;;2.90;;
12725;SDS011;6427;49.754;6.106;2023-07-16T04:39:01;10.02;;;2.90;;
12725;SDS011;6427;49.754;6.106;2023-07-16T04:41:29;7.40;;;2.40;;
12725;SDS011;6427;49.754;6.106;2023-07-16T04:43:57;7.23;;;2.37;;
12725;SDS011;6427;49.754;6.106;2023-07-16T04:46:25;9.83;;;3.00;;
12725;SDS011;6427;49.754;6.106;2023-07-16T04:48:52;8.27;;;2.80;;
12725;SDS011;6427;49.754;6.106;2023-07-16T04:51:21;8.68;;;2.80;;
12725;SDS011;6427;49.754;6.106;2023-07-16T04:53:49;6.70;;;2.27;;
12725;SDS011;6427;49.754;6.106;2023-07-16T04:56:16;9.98;;;2.92;;
12725;SDS011;6427;49.754;6.106;2023-07-16T04:58:44;5.97;;;2.70;;
12725;SDS011;6427;49.754;6.106;2023-07-16T05:01:11;9.80;;;2.60;;
12725;SDS011;6427;49.754;6.106;2023-07-16T05:03:39;6.50;;;2.60;;
12725;SDS011;6427;49.754;6.106;2023-07-16T05:06:07;6.53;;;2.60;;
12725;SDS011;6427;49.754;6.106;2023-07-16T05:08:34;7.10;;;2.50;;
12725;SDS011;6427;49.754;6.106;2023-07-16T05:11:02;6.13;;;2.57;;
12725;SDS011;6427;49.754;6.106;2023-07-16T05:13:30;9.63;;;2.85;;
12725;SDS011;6427;49.754;6.106;2023-07-16T05:15:58;8.87;;;3.20;;
12725;SDS011;6427;49.754;6.106;2023-07-16T05:18:26;9.17;;;2.73;;
12725;SDS011;6427;49.754;6.106;2023-07-16T05:20:54;7.63;;;2.53;;
12725;SDS011;6427;49.754;6.106;2023-07-16T05:23:21;10.20;;;2.37;;
12725;SDS011;6427;49.754;6.106;2023-07-16T05:25:49;7.47;;;2.40;;
12725;SDS011;6427;49.754;6.106;2023-07-16T05:28:17;7.77;;;2.83;;
12725;SDS011;6427;49.754;6.106;2023-07-16T05:30:45;8.43;;;2.87;;
12725;SDS011;6427;49.754;6.106;2023-07-16T05:33:12;8.40;;;3.05;;
12725;SDS011;6427;49.754;6.106;2023-07-16T05:35:40;5.87;;;2.97;;
12725;SDS011;6427;49.754;6.106;2023-07-16T05:38:08;11.13;;;3.33;;
12725;SDS011;6427;49.754;6.106;2023-07-16T05:40:35;9.57;;;3.40;;
12725;SDS011;6427;49.754;6.106;2023-07-16T05:43:03;6.93;;;3.27;;
12725;SDS011;6427;49.754;6.106;2023-07-16T05:45:30;8.17;;;3.00;;
12725;SDS011;6427;49.754;6.106;2023-07-16T05:47:58;11.37;;;3.57;;
12725;SDS011;6427;49.754;6.106;2023-07-16T05:50:26;7.80;;;3.10;;
12725;SDS011;6427;49.754;6.106;2023-07-16T05:52:53;6.17;;;3.00;;
12725;SDS011;6427;49.754;6.106;2023-07-16T05:55:21;7.80;;;3.43;;
12725;SDS011;6427;49.754;6.106;2023-07-16T05:57:48;10.07;;;4.30;;
12725;SDS011;6427;49.754;6.106;2023-07-16T06:00:16;9.43;;;3.60;;
12725;SDS011;6427;49.754;6.106;2023-07-16T06:02:44;10.00;;;3.73;;
12725;SDS011;6427;49.754;6.106;2023-07-16T06:05:11;9.57;;;4.13;;
12725;SDS011;6427;49.754;6.106;2023-07-16T06:07:39;9.20;;;3.53;;
12725;SDS011;6427;49.754;6.106;2023-07-16T06:10:06;7.47;;;3.43;;
12725;SDS011;6427;49.754;6.106;2023-07-16T06:12:34;10.47;;;3.97;;
12725;SDS011;6427;49.754;6.106;2023-07-16T06:15:02;8.80;;;3.93;;
12725;SDS011;6427;49.754;6.106;2023-07-16T06:17:29;10.43;;;3.97;;
12725;SDS011;6427;49.754;6.106;2023-07-16T06:19:57;12.33;;;4.60;;
12725;SDS011;6427;49.754;6.106;2023-07-16T06:22:24;12.60;;;5.25;;
12725;SDS011;6427;49.754;6.106;2023-07-16T06:24:53;10.13;;;4.95;;
12725;SDS011;6427;49.754;6.106;2023-07-16T06:27:20;8.83;;;4.47;;
12725;SDS011;6427;49.754;6.106;2023-07-16T06:29:48;9.10;;;4.33;;
12725;SDS011;6427;49.754;6.106;2023-07-16T06:32:16;12.80;;;4.30;;
12725;SDS011;6427;49.754;6.106;2023-07-16T06:34:43;9.07;;;4.00;;
12725;SDS011;6427;49.754;6.106;2023-07-16T06:37:12;10.13;;;4.40;;
12725;SDS011;6427;49.754;6.106;2023-07-16T06:39:39;9.63;;;4.13;;
12725;SDS011;6427;49.754;6.106;2023-07-16T06:42:07;11.20;;;4.77;;
12725;SDS011;6427;49.754;6.106;2023-07-16T06:44:34;12.50;;;4.77;;
12725;SDS011;6427;49.754;6.106;2023-07-16T06:47:02;10.95;;;4.93;;
12725;SDS011;6427;49.754;6.106;2023-07-16T06:49:31;9.57;;;4.43;;
12725;SDS011;6427;49.754;6.106;2023-07-16T06:52:00;10.33;;;4.53;;
12725;SDS011;6427;49.754;6.106;2023-07-16T06:54:27;16.35;;;5.22;;
12725;SDS011;6427;49.754;6.106;2023-07-16T06:56:55;10.63;;;4.90;;
12725;SDS011;6427;49.754;6.106;2023-07-16T06:59:22;9.47;;;4.10;;
12725;SDS011;6427;49.754;6.106;2023-07-16T07:01:51;14.80;;;4.78;;
12725;SDS011;6427;49.754;6.106;2023-07-16T07:04:18;11.87;;;4.00;;
12725;SDS011;6427;49.754;6.106;2023-07-16T07:06:46;9.07;;;4.33;;
12725;SDS011;6427;49.754;6.106;2023-07-16T07:09:13;13.70;;;4.40;;
12725;SDS011;6427;49.754;6.106;2023-07-16T07:11:41;12.07;;;4.70;;
12725;SDS011;6427;49.754;6.106;2023-07-16T07:14:09;9.13;;;4.27;;
12725;SDS011;6427;49.754;6.106;2023-07-16T07:16:37;10.57;;;4.23;;
12725;SDS011;6427;49.754;6.106;2023-07-16T07:19:05;10.23;;;4.20;;
12725;SDS011;6427;49.754;6.106;2023-07-16T07:21:33;9.43;;;4.10;;
12725;SDS011;6427;49.754;6.106;2023-07-16T07:24:01;10.83;;;3.93;;
12725;SDS011;6427;49.754;6.106;2023-07-16T07:26:29;10.33;;;4.33;;
12725;SDS011;6427;49.754;6.106;2023-07-16T07:28:56;6.03;;;3.77;;
12725;SDS011;6427;49.754;6.106;2023-07-16T07:31:24;9.70;;;4.07;;
12725;SDS011;6427;49.754;6.106;2023-07-16T07:33:52;12.93;;;4.50;;
12725;SDS011;6427;49.754;6.106;2023-07-16T07:36:20;14.33;;;4.77;;
12725;SDS011;6427;49.754;6.106;2023-07-16T07:38:48;13.43;;;4.23;;
12725;SDS011;6427;49.754;6.106;2023-07-16T07:41:17;13.20;;;5.25;;
12725;SDS011;6427;49.754;6.106;2023-07-16T07:43:44;11.67;;;4.83;;
12725;SDS011;6427;49.754;6.106;2023-07-16T07:46:12;8.43;;;4.23;;
12725;SDS011;6427;49.754;6.106;2023-07-16T07:48:41;8.60;;;4.30;;
12725;SDS011;6427;49.754;6.106;2023-07-16T07:51:09;11.15;;;5.12;;
12725;SDS011;6427;49.754;6.106;2023-07-16T07:53:37;9.80;;;5.20;;
12725;SDS011;6427;49.754;6.106;2023-07-16T07:56:05;9.48;;;5.03;;
12725;SDS011;6427;49.754;6.106;2023-07-16T07:58:32;9.30;;;4.20;;
12725;SDS011;6427;49.754;6.106;2023-07-16T08:01:06;8.80;;;4.57;;
12725;SDS011;6427;49.754;6.106;2023-07-16T08:03:30;10.23;;;4.60;;
12725;SDS011;6427;49.754;6.106;2023-07-16T08:05:58;9.88;;;5.20;;
12725;SDS011;6427;49.754;6.106;2023-07-16T08:08:25;8.17;;;4.53;;
12725;SDS011;6427;49.754;6.106;2023-07-16T08:10:54;11.73;;;4.53;;
12725;SDS011;6427;49.754;6.106;2023-07-16T08:13:21;14.23;;;5.57;;
12725;SDS011;6427;49.754;6.106;2023-07-16T08:15:48;11.13;;;5.33;;
12725;SDS011;6427;49.754;6.106;2023-07-16T08:18:16;12.57;;;4.77;;
12725;SDS011;6427;49.754;6.106;2023-07-16T08:20:43;10.60;;;5.23;;
12725;SDS011;6427;49.754;6.106;2023-07-16T08:23:11;8.83;;;5.10;;
12725;SDS011;6427;49.754;6.106;2023-07-16T08:25:39;11.27;;;5.03;;
12725;SDS011;6427;49.754;6.106;2023-07-16T08:28:06;11.80;;;4.97;;
12725;SDS011;6427;49.754;6.106;2023-07-16T08:30:35;18.27;;;4.70;;
12725;SDS011;6427;49.754;6.106;2023-07-16T08:33:03;10.53;;;5.13;;
12725;SDS011;6427;49.754;6.106;2023-07-16T08:35:31;9.47;;;4.93;;
12725;SDS011;6427;49.754;6.106;2023-07-16T08:37:58;11.53;;;5.23;;
12725;SDS011;6427;49.754;6.106;2023-07-16T08:40:26;9.80;;;5.07;;
12725;SDS011;6427;49.754;6.106;2023-07-16T08:42:54;10.43;;;4.90;;
12725;SDS011;6427;49.754;6.106;2023-07-16T08:45:21;11.47;;;5.30;;
12725;SDS011;6427;49.754;6.106;2023-07-16T08:47:50;9.70;;;4.83;;
12725;SDS011;6427;49.754;6.106;2023-07-16T08:50:17;12.90;;;5.27;;
12725;SDS011;6427;49.754;6.106;2023-07-16T08:52:45;10.63;;;5.20;;
12725;SDS011;6427;49.754;6.106;2023-07-16T08:55:12;15.83;;;5.43;;
12725;SDS011;6427;49.754;6.106;2023-07-16T08:57:41;12.73;;;5.90;;
12725;SDS011;6427;49.754;6.106;2023-07-16T09:00:08;11.77;;;6.17;;
12725;SDS011;6427;49.754;6.106;2023-07-16T09:02:36;10.70;;;5.70;;
12725;SDS011;6427;49.754;6.106;2023-07-16T09:05:04;8.77;;;5.20;;
12725;SDS011;6427;49.754;6.106;2023-07-16T09:07:31;9.87;;;5.83;;
12725;SDS011;6427;49.754;6.106;2023-07-16T09:10:00;9.57;;;5.80;;
12725;SDS011;6427;49.754;6.106;2023-07-16T09:12:27;10.20;;;5.23;;
12725;SDS011;6427;49.754;6.106;2023-07-16T09:14:55;15.67;;;6.10;;
12725;SDS011;6427;49.754;6.106;2023-07-16T09:17:23;11.33;;;5.23;;
12725;SDS011;6427;49.754;6.106;2023-07-16T09:19:51;10.43;;;5.40;;
12725;SDS011;6427;49.754;6.106;2023-07-16T09:22:18;11.07;;;5.77;;
12725;SDS011;6427;49.754;6.106;2023-07-16T09:24:45;11.77;;;5.70;;
12725;SDS011;6427;49.754;6.106;2023-07-16T09:27:13;7.67;;;5.33;;
12725;SDS011;6427;49.754;6.106;2023-07-16T09:29:40;13.13;;;5.90;;
12725;SDS011;6427;49.754;6.106;2023-07-16T09:32:08;11.70;;;6.45;;
12725;SDS011;6427;49.754;6.106;2023-07-16T09:34:35;8.17;;;5.40;;
12725;SDS011;6427;49.754;6.106;2023-07-16T09:37:04;12.27;;;6.28;;
12725;SDS011;6427;49.754;6.106;2023-07-16T09:39:31;9.97;;;5.03;;
12725;SDS011;6427;49.754;6.106;2023-07-16T09:41:58;10.00;;;4.40;;
12725;SDS011;6427;49.754;6.106;2023-07-16T09:44:26;12.10;;;5.78;;
12725;SDS011;6427;49.754;6.106;2023-07-16T09:46:53;9.17;;;5.00;;
12725;SDS011;6427;49.754;6.106;2023-07-16T09:49:25;8.63;;;5.40;;
12725;SDS011;6427;49.754;6.106;2023-07-16T09:51:53;7.37;;;4.77;;
12725;SDS011;6427;49.754;6.106;2023-07-16T09:54:21;10.67;;;5.60;;
12725;SDS011;6427;49.754;6.106;2023-07-16T09:56:51;8.53;;;4.87;;
12725;SDS011;6427;49.754;6.106;2023-07-16T09:59:20;10.23;;;5.27;;
12725;SDS011;6427;49.754;6.106;2023-07-16T10:01:45;10.73;;;5.40;;
12725;SDS011;6427;49.754;6.106;2023-07-16T10:04:17;10.53;;;5.20;;
12725;SDS011;6427;49.754;6.106;2023-07-16T10:07:02;9.93;;;5.37;;
12725;SDS011;6427;49.754;6.106;2023-07-16T10:14:43;12.33;;;6.53;;
12725;SDS011;6427;49.754;6.106;2023-07-16T10:17:21;9.17;;;4.60;;
12725;SDS011;6427;49.754;6.106;2023-07-16T10:19:57;12.57;;;8.03;;
12725;SDS011;6427;49.754;6.106;2023-07-16T10:22:33;8.77;;;4.43;;
12725;SDS011;6427;49.754;6.106;2023-07-16T10:25:21;7.10;;;4.00;;
12725;SDS011;6427;49.754;6.106;2023-07-16T10:27:37;7.87;;;5.03;;
12725;SDS011;6427;49.754;6.106;2023-07-16T10:30:04;7.63;;;4.00;;
12725;SDS011;6427;49.754;6.106;2023-07-16T10:32:33;7.67;;;4.10;;
12725;SDS011;6427;49.754;6.106;2023-07-16T10:35:00;7.77;;;4.23;;
12725;SDS011;6427;49.754;6.106;2023-07-16T10:37:27;11.13;;;4.43;;
12725;SDS011;6427;49.754;6.106;2023-07-16T10:39:57;8.38;;;4.68;;
12725;SDS011;6427;49.754;6.106;2023-07-16T10:42:24;9.03;;;4.80;;
12725;SDS011;6427;49.754;6.106;2023-07-16T10:44:51;7.50;;;4.30;;
12725;SDS011;6427;49.754;6.106;2023-07-16T10:47:29;9.10;;;4.50;;
12725;SDS011;6427;49.754;6.106;2023-07-16T10:49:58;5.23;;;3.53;;
12725;SDS011;6427;49.754;6.106;2023-07-16T10:52:26;6.87;;;3.67;;
12725;SDS011;6427;49.754;6.106;2023-07-16T10:54:53;8.83;;;3.30;;
12725;SDS011;6427;49.754;6.106;2023-07-16T10:57:21;5.80;;;3.20;;
12725;SDS011;6427;49.754;6.106;2023-07-16T10:59:53;7.63;;;3.60;;
12725;SDS011;6427;49.754;6.106;2023-07-16T11:02:20;8.77;;;4.00;;
12725;SDS011;6427;49.754;6.106;2023-07-16T11:04:48;6.77;;;3.70;;
12725;SDS011;6427;49.754;6.106;2023-07-16T11:07:16;5.30;;;3.63;;
12725;SDS011;6427;49.754;6.106;2023-07-16T11:09:45;9.43;;;4.13;;
12725;SDS011;6427;49.754;6.106;2023-07-16T11:12:13;7.07;;;3.67;;
12725;SDS011;6427;49.754;6.106;2023-07-16T11:14:44;10.20;;;4.00;;
12725;SDS011;6427;49.754;6.106;2023-07-16T11:17:11;8.63;;;4.12;;
12725;SDS011;6427;49.754;6.106;2023-07-16T11:19:39;6.73;;;3.67;;
12725;SDS011;6427;49.754;6.106;2023-07-16T11:22:07;6.50;;;3.57;;
12725;SDS011;6427;49.754;6.106;2023-07-16T11:24:38;8.93;;;3.53;;
12725;SDS011;6427;49.754;6.106;2023-07-16T11:27:15;10.85;;;3.95;;
12725;SDS011;6427;49.754;6.106;2023-07-16T11:29:48;7.67;;;3.97;;
12725;SDS011;6427;49.754;6.106;2023-07-16T11:34:56;7.78;;;4.47;;
12725;SDS011;6427;49.754;6.106;2023-07-16T11:37:27;8.40;;;4.20;;
12725;SDS011;6427;49.754;6.106;2023-07-16T11:39:57;5.43;;;3.40;;
12725;SDS011;6427;49.754;6.106;2023-07-16T11:42:31;8.77;;;3.70;;
12725;SDS011;6427;49.754;6.106;2023-07-16T11:44:58;7.07;;;4.35;;
12725;SDS011;6427;49.754;6.106;2023-07-16T11:50:02;8.43;;;4.27;;
12725;SDS011;6427;49.754;6.106;2023-07-16T11:52:31;8.50;;;4.13;;
12725;SDS011;6427;49.754;6.106;2023-07-16T11:54:58;8.13;;;3.77;;
12725;SDS011;6427;49.754;6.106;2023-07-16T11:57:32;7.63;;;3.97;;
12725;SDS011;6427;49.754;6.106;2023-07-16T11:59:59;6.17;;;3.50;;
12725;SDS011;6427;49.754;6.106;2023-07-16T12:02:28;8.53;;;3.50;;
12725;SDS011;6427;49.754;6.106;2023-07-16T12:04:55;4.60;;;3.47;;
12725;SDS011;6427;49.754;6.106;2023-07-16T12:07:32;8.00;;;3.63;;
12725;SDS011;6427;49.754;6.106;2023-07-16T12:10:00;7.70;;;3.60;;
12725;SDS011;6427;49.754;6.106;2023-07-16T12:12:27;6.13;;;3.80;;
12725;SDS011;6427;49.754;6.106;2023-07-16T12:14:56;5.77;;;3.30;;
12725;SDS011;6427;49.754;6.106;2023-07-16T12:17:23;5.70;;;3.33;;
12725;SDS011;6427;49.754;6.106;2023-07-16T12:19:51;6.50;;;3.73;;
12725;SDS011;6427;49.754;6.106;2023-07-16T12:22:19;6.97;;;3.43;;
12725;SDS011;6427;49.754;6.106;2023-07-16T12:24:46;5.70;;;3.70;;
12725;SDS011;6427;49.754;6.106;2023-07-16T12:27:14;6.25;;;4.00;;
12725;SDS011;6427;49.754;6.106;2023-07-16T12:29:42;6.83;;;3.50;;
12725;SDS011;6427;49.754;6.106;2023-07-16T12:32:10;6.77;;;3.53;;
12725;SDS011;6427;49.754;6.106;2023-07-16T12:34:38;8.00;;;3.77;;
12725;SDS011;6427;49.754;6.106;2023-07-16T12:37:06;8.10;;;4.10;;
12725;SDS011;6427;49.754;6.106;2023-07-16T12:39:37;8.18;;;4.43;;
12725;SDS011;6427;49.754;6.106;2023-07-16T12:42:04;4.93;;;3.53;;
12725;SDS011;6427;49.754;6.106;2023-07-16T12:44:32;7.50;;;3.60;;
12725;SDS011;6427;49.754;6.106;2023-07-16T12:47:00;9.00;;;3.43;;
12725;SDS011;6427;49.754;6.106;2023-07-16T12:49:28;9.67;;;3.60;;
12725;SDS011;6427;49.754;6.106;2023-07-16T12:51:57;5.90;;;3.40;;
12725;SDS011;6427;49.754;6.106;2023-07-16T12:54:25;12.17;;;4.13;;
12725;SDS011;6427;49.754;6.106;2023-07-16T12:56:52;6.17;;;3.90;;
12725;SDS011;6427;49.754;6.106;2023-07-16T12:59:20;7.73;;;3.57;;
12725;SDS011;6427;49.754;6.106;2023-07-16T13:01:48;6.57;;;3.73;;
12725;SDS011;6427;49.754;6.106;2023-07-16T13:04:16;5.63;;;3.70;;
12725;SDS011;6427;49.754;6.106;2023-07-16T13:06:44;7.07;;;3.97;;
12725;SDS011;6427;49.754;6.106;2023-07-16T13:09:12;6.57;;;3.77;;
12725;SDS011;6427;49.754;6.106;2023-07-16T13:11:39;6.70;;;3.90;;
12725;SDS011;6427;49.754;6.106;2023-07-16T13:14:07;6.23;;;3.90;;
12725;SDS011;6427;49.754;6.106;2023-07-16T13:16:34;9.40;;;4.45;;
12725;SDS011;6427;49.754;6.106;2023-07-16T13:19:02;6.68;;;4.20;;
12725;SDS011;6427;49.754;6.106;2023-07-16T13:21:30;9.43;;;3.83;;
12725;SDS011;6427;49.754;6.106;2023-07-16T13:23:57;6.82;;;3.78;;
12725;SDS011;6427;49.754;6.106;2023-07-16T13:26:25;6.33;;;3.97;;
12725;SDS011;6427;49.754;6.106;2023-07-16T13:28:52;7.40;;;4.33;;
12725;SDS011;6427;49.754;6.106;2023-07-16T13:31:20;8.93;;;3.97;;
12725;SDS011;6427;49.754;6.106;2023-07-16T13:33:48;7.37;;;3.73;;
12725;SDS011;6427;49.754;6.106;2023-07-16T13:36:16;7.03;;;3.77;;
12725;SDS011;6427;49.754;6.106;2023-07-16T13:38:44;9.50;;;4.07;;
12725;SDS011;6427;49.754;6.106;2023-07-16T13:41:11;8.77;;;4.50;;
12725;SDS011;6427;49.754;6.106;2023-07-16T13:43:39;6.30;;;3.73;;
12725;SDS011;6427;49.754;6.106;2023-07-16T13:46:07;8.80;;;5.23;;
12725;SDS011;6427;49.754;6.106;2023-07-16T13:48:34;8.90;;;3.83;;
12725;SDS011;6427;49.754;6.106;2023-07-16T13:51:02;6.27;;;3.83;;
12725;SDS011;6427;49.754;6.106;2023-07-16T13:53:29;9.23;;;4.40;;
12725;SDS011;6427;49.754;6.106;2023-07-16T13:55:57;6.53;;;4.40;;
12725;SDS011;6427;49.754;6.106;2023-07-16T13:58:26;8.40;;;3.90;;
12725;SDS011;6427;49.754;6.106;2023-07-16T14:00:53;8.90;;;4.27;;
12725;SDS011;6427;49.754;6.106;2023-07-16T14:03:21;7.50;;;3.83;;
12725;SDS011;6427;49.754;6.106;2023-07-16T14:05:49;7.53;;;3.77;;
12725;SDS011;6427;49.754;6.106;2023-07-16T14:08:17;6.50;;;3.70;;
12725;SDS011;6427;49.754;6.106;2023-07-16T14:10:46;8.53;;;4.10;;
12725;SDS011;6427;49.754;6.106;2023-07-16T14:13:13;6.63;;;4.23;;
12725;SDS011;6427;49.754;6.106;2023-07-16T14:15:41;9.27;;;3.70;;
12725;SDS011;6427;49.754;6.106;2023-07-16T14:18:09;7.47;;;3.90;;
12725;SDS011;6427;49.754;6.106;2023-07-16T14:20:36;7.82;;;4.20;;
12725;SDS011;6427;49.754;6.106;2023-07-16T14:23:04;5.07;;;3.80;;
12725;SDS011;6427;49.754;6.106;2023-07-16T14:25:31;5.77;;;3.37;;
12725;SDS011;6427;49.754;6.106;2023-07-16T14:27:59;6.43;;;3.90;;
12725;SDS011;6427;49.754;6.106;2023-07-16T14:30:27;7.30;;;3.90;;
12725;SDS011;6427;49.754;6.106;2023-07-16T14:32:54;9.93;;;3.47;;
12725;SDS011;6427;49.754;6.106;2023-07-16T14:35:22;5.10;;;3.60;;
12725;SDS011;6427;49.754;6.106;2023-07-16T14:37:49;5.27;;;3.77;;
12725;SDS011;6427;49.754;6.106;2023-07-16T14:40:17;7.20;;;3.57;;
12725;SDS011;6427;49.754;6.106;2023-07-16T14:42:45;8.93;;;3.57;;
12725;SDS011;6427;49.754;6.106;2023-07-16T14:45:13;7.80;;;3.80;;
12725;SDS011;6427;49.754;6.106;2023-07-16T14:47:42;6.43;;;4.17;;
12725;SDS011;6427;49.754;6.106;2023-07-16T14:50:10;6.87;;;3.63;;
12725;SDS011;6427;49.754;6.106;2023-07-16T14:52:38;9.77;;;4.17;;
12725;SDS011;6427;49.754;6.106;2023-07-16T14:55:05;5.50;;;3.40;;
12725;SDS011;6427;49.754;6.106;2023-07-16T14:57:33;7.93;;;3.90;;
12725;SDS011;6427;49.754;6.106;2023-07-16T15:00:00;7.03;;;3.63;;
12725;SDS011;6427;49.754;6.106;2023-07-16T15:02:28;7.78;;;4.15;;
12725;SDS011;6427;49.754;6.106;2023-07-16T15:04:56;6.53;;;4.10;;
12725;SDS011;6427;49.754;6.106;2023-07-16T15:07:23;6.63;;;3.90;;
12725;SDS011;6427;49.754;6.106;2023-07-16T15:09:52;5.50;;;3.60;;
12725;SDS011;6427;49.754;6.106;2023-07-16T15:12:19;6.63;;;3.50;;
12725;SDS011;6427;49.754;6.106;2023-07-16T15:14:48;4.77;;;3.33;;
12725;SDS011;6427;49.754;6.106;2023-07-16T15:17:15;8.60;;;3.90;;